createdAt,value
2022-08-01T00:00:59.340Z,18.74
2022-08-01T00:04:02.359Z,18.68
2022-08-01T00:07:05.219Z,18.77
2022-08-01T00:10:10.625Z,18.64
2022-08-01T00:13:14.712Z,18.72
2022-08-01T00:16:17.821Z,18.28
2022-08-01T00:19:20.507Z,18.29
2022-08-01T00:22:23.234Z,18.32
2022-08-01T00:25:33.519Z,18.26
2022-08-01T00:28:38.566Z,18.31
2022-08-01T00:31:41.313Z,18.11
2022-08-01T00:34:44.051Z,18.24
2022-08-01T00:37:46.767Z,18.30
2022-08-01T00:40:49.925Z,18.32
2022-08-01T00:43:54.235Z,18.00
2022-08-01T00:46:56.957Z,18.09
2022-08-01T00:49:59.711Z,17.95
2022-08-01T00:53:03.029Z,17.80
2022-08-01T00:56:06.384Z,17.83
2022-08-01T00:59:12.026Z,17.53
2022-08-01T01:02:17.140Z,17.75
2022-08-01T01:05:20.063Z,17.56
2022-08-01T01:08:29.017Z,17.72
2022-08-01T01:11:38.870Z,17.80
2022-08-01T01:14:47.618Z,17.69
2022-08-01T01:17:57.382Z,17.71
2022-08-01T01:21:06.150Z,17.56
2022-08-01T01:24:23.387Z,17.45
2022-08-01T01:27:35.806Z,17.25
2022-08-01T01:30:43.424Z,17.48
2022-08-01T01:33:47.592Z,17.41
2022-08-01T01:36:52.167Z,17.21
2022-08-01T01:39:56.344Z,17.36
2022-08-01T01:42:59.835Z,17.28
2022-08-01T01:46:05.683Z,17.38
2022-08-01T01:49:11.250Z,17.24
2022-08-01T01:52:16.171Z,17.25
2022-08-01T01:55:21.664Z,17.26
2022-08-01T01:58:25.734Z,17.38
2022-08-01T02:01:57.981Z,17.29
2022-08-01T02:04:59.137Z,16.99
2022-08-01T02:08:04.420Z,16.89
2022-08-01T02:11:20.758Z,16.90
2022-08-01T02:14:25.366Z,16.81
2022-08-01T02:17:30.063Z,16.87
2022-08-01T02:20:33.139Z,17.05
2022-08-01T02:23:38.080Z,17.12
2022-08-01T02:26:45.231Z,17.20
2022-08-01T02:29:54.551Z,17.31
2022-08-01T02:33:03.559Z,17.31
2022-08-01T02:36:31.668Z,17.24
2022-08-01T02:39:33.574Z,17.25
2022-08-01T02:42:38.007Z,17.15
2022-08-01T02:45:48.592Z,17.18
2022-08-01T02:48:55.614Z,17.33
2022-08-01T02:52:00.003Z,17.43
2022-08-01T02:55:03.701Z,17.40
2022-08-01T02:58:08.903Z,17.38
2022-08-01T03:01:12.537Z,17.33
2022-08-01T03:04:19.888Z,17.31
2022-08-01T03:07:24.977Z,17.36
2022-08-01T03:10:39.776Z,17.44
2022-08-01T03:13:45.760Z,17.30
2022-08-01T03:16:49.972Z,17.41
2022-08-01T03:19:54.990Z,17.44
2022-08-01T03:23:02.120Z,17.38
2022-08-01T03:26:06.012Z,17.33
2022-08-01T03:29:12.914Z,17.38
2022-08-01T03:32:17.041Z,17.41
2022-08-01T03:35:23.827Z,17.36
2022-08-01T03:38:29.104Z,17.36
2022-08-01T03:41:38.181Z,17.40
2022-08-01T03:44:42.909Z,17.40
2022-08-01T03:47:47.992Z,17.45
2022-08-01T03:50:54.318Z,17.24
2022-08-01T03:53:58.888Z,17.24
2022-08-01T03:57:02.739Z,17.15
2022-08-01T04:00:09.363Z,17.25
2022-08-01T04:03:18.741Z,17.11
2022-08-01T04:06:23.350Z,17.13
2022-08-01T04:09:26.128Z,17.19
2022-08-01T04:12:29.237Z,17.19
2022-08-01T04:15:32.249Z,17.28
2022-08-01T04:18:35.428Z,17.24
2022-08-01T04:21:39.929Z,17.16
2022-08-01T04:24:44.518Z,17.27
2022-08-01T04:27:52.298Z,17.14
2022-08-01T04:31:02.219Z,17.11
2022-08-01T04:34:07.668Z,17.24
2022-08-01T04:37:13.252Z,17.21
2022-08-01T04:40:18.117Z,17.28
2022-08-01T04:43:21.008Z,17.26
2022-08-01T04:46:24.616Z,17.40
2022-08-01T04:49:27.440Z,17.42
2022-08-01T04:52:36.306Z,17.34
2022-08-01T04:55:39.058Z,17.30
2022-08-01T04:58:42.250Z,17.45
2022-08-01T05:01:49.817Z,17.52
2022-08-01T05:04:52.572Z,17.50
2022-08-01T05:07:56.887Z,17.51
2022-08-01T05:10:59.686Z,17.57
2022-08-01T05:14:02.429Z,17.62
2022-08-01T05:17:07.256Z,17.72
2022-08-01T05:20:11.178Z,17.75
2022-08-01T05:23:15.836Z,17.81
2022-08-01T05:26:34.080Z,17.75
2022-08-01T05:29:44.229Z,17.81
2022-08-01T05:32:47.370Z,17.70
2022-08-01T05:35:50.341Z,17.71
2022-08-01T05:38:54.656Z,17.73
2022-08-01T05:41:57.336Z,17.74
2022-08-01T05:45:00.048Z,17.74
2022-08-01T05:48:02.885Z,17.75
2022-08-01T05:51:06.015Z,17.77
2022-08-01T05:54:10.099Z,17.79
2022-08-01T05:57:12.829Z,17.76
2022-08-01T06:00:17.835Z,17.85
2022-08-01T06:03:20.730Z,17.86
2022-08-01T06:06:25.417Z,17.90
2022-08-01T06:09:30.037Z,17.93
2022-08-01T06:12:35.757Z,17.93
2022-08-01T06:15:38.770Z,17.95
2022-08-01T06:18:41.517Z,18.00
2022-08-01T06:21:44.238Z,18.01
2022-08-01T06:24:48.345Z,18.04
2022-08-01T06:27:51.136Z,18.06
2022-08-01T06:30:54.377Z,18.10
2022-08-01T06:33:58.210Z,18.17
2022-08-01T06:37:00.873Z,18.21
2022-08-01T06:40:16.962Z,18.29
2022-08-01T06:43:20.725Z,18.29
2022-08-01T06:46:23.408Z,18.37
2022-08-01T06:49:33.284Z,18.39
2022-08-01T06:52:36.529Z,18.46
2022-08-01T06:55:40.766Z,18.50
2022-08-01T06:58:43.592Z,18.52
2022-08-01T07:01:46.272Z,18.54
2022-08-01T07:04:49.212Z,18.58
2022-08-01T07:07:52.532Z,18.75
2022-08-01T07:10:56.734Z,18.94
2022-08-01T07:14:00.150Z,19.08
2022-08-01T07:17:02.881Z,19.10
2022-08-01T07:20:07.166Z,19.06
2022-08-01T07:23:13.172Z,19.03
2022-08-01T07:26:18.515Z,19.06
2022-08-01T07:29:21.222Z,19.05
2022-08-01T07:32:23.990Z,19.07
2022-08-01T07:35:26.973Z,19.11
2022-08-01T07:38:29.682Z,19.06
2022-08-01T07:41:52.674Z,19.13
2022-08-01T07:44:56.477Z,19.19
2022-08-01T07:48:04.365Z,19.26
2022-08-01T07:51:13.095Z,19.29
2022-08-01T07:54:15.899Z,19.35
2022-08-01T07:57:19.991Z,19.43
2022-08-01T08:00:22.821Z,19.39
2022-08-01T08:03:25.525Z,19.40
2022-08-01T08:06:28.215Z,19.07
2022-08-01T08:09:30.949Z,18.69
2022-08-01T08:12:41.984Z,18.60
2022-08-01T08:15:48.305Z,18.68
2022-08-01T08:18:51.494Z,18.76
2022-08-01T08:21:54.174Z,18.89
2022-08-01T08:24:56.896Z,19.09
2022-08-01T08:28:05.271Z,19.32
2022-08-01T08:31:07.987Z,19.50
2022-08-01T08:34:29.649Z,19.53
2022-08-01T08:37:38.007Z,19.55
2022-08-01T08:40:42.167Z,19.56
2022-08-01T08:43:46.364Z,19.67
2022-08-01T08:46:52.071Z,19.76
2022-08-01T08:49:57.451Z,19.57
2022-08-01T08:53:06.609Z,19.47
2022-08-01T08:56:10.982Z,19.43
2022-08-01T08:59:15.593Z,19.36
2022-08-01T09:02:18.325Z,19.28
2022-08-01T09:05:26.538Z,19.43
2022-08-01T09:08:42.418Z,19.40
2022-08-01T09:11:45.308Z,19.50
2022-08-01T09:15:01.225Z,19.68
2022-08-01T09:18:03.973Z,19.99
2022-08-01T09:21:11.833Z,20.07
2022-08-01T09:24:18.349Z,19.98
2022-08-01T09:27:34.247Z,19.85
2022-08-01T09:30:40.929Z,19.73
2022-08-01T09:33:55.783Z,19.62
2022-08-01T09:37:03.010Z,19.53
2022-08-01T09:40:06.886Z,19.53
2022-08-01T09:43:14.940Z,19.52
2022-08-01T09:46:20.613Z,19.49
2022-08-01T09:49:50.873Z,19.52
2022-08-01T09:52:57.112Z,20.18
2022-08-01T09:56:11.745Z,20.53
2022-08-01T09:59:16.872Z,20.59
2022-08-01T10:02:34.143Z,20.63
2022-08-01T10:05:37.890Z,20.68
2022-08-01T10:08:48.648Z,20.72
2022-08-01T10:11:52.747Z,20.58
2022-08-01T10:14:56.462Z,20.51
2022-08-01T10:18:05.903Z,20.81
2022-08-01T10:21:57.139Z,21.09
2022-08-01T10:24:44.725Z,21.20
2022-08-01T10:27:50.275Z,21.41
2022-08-01T10:30:53.746Z,21.54
2022-08-01T10:33:59.746Z,21.60
2022-08-01T10:37:03.948Z,21.64
2022-08-01T10:40:29.232Z,21.67
2022-08-01T10:43:32.132Z,21.62
2022-08-01T10:46:39.213Z,21.89
2022-08-01T10:49:49.357Z,22.07
2022-08-01T10:53:15.911Z,22.15
2022-08-01T10:56:19.831Z,22.38
2022-08-01T10:59:49.294Z,21.95
2022-08-01T11:03:01.586Z,22.07
2022-08-01T11:06:06.727Z,21.96
2022-08-01T11:09:35.364Z,22.07
2022-08-01T11:12:41.101Z,22.31
2022-08-01T11:15:50.560Z,22.01
2022-08-01T11:18:53.714Z,22.23
2022-08-01T11:22:04.811Z,22.44
2022-08-01T11:25:08.301Z,22.58
2022-08-01T11:28:30.173Z,23.10
2022-08-01T11:31:38.438Z,23.12
2022-08-01T11:35:00.654Z,23.21
2022-08-01T11:38:28.098Z,23.37
2022-08-01T11:41:37.918Z,23.40
2022-08-01T11:44:50.529Z,23.45
2022-08-01T11:47:53.501Z,23.14
2022-08-01T11:50:58.823Z,22.94
2022-08-01T11:54:35.246Z,22.85
2022-08-01T11:57:39.548Z,22.79
2022-08-01T12:00:43.814Z,23.12
2022-08-01T12:03:46.823Z,23.28
2022-08-01T12:06:51.086Z,23.29
2022-08-01T12:10:03.279Z,23.16
2022-08-01T12:13:07.906Z,23.02
2022-08-01T12:16:11.856Z,23.20
2022-08-01T12:19:20.729Z,23.29
2022-08-01T12:22:25.175Z,23.44
2022-08-01T12:25:30.116Z,23.43
2022-08-01T12:28:41.113Z,23.70
2022-08-01T12:31:44.355Z,23.94
2022-08-01T12:34:47.150Z,23.80
2022-08-01T12:37:55.434Z,23.74
2022-08-01T12:41:00.401Z,23.67
2022-08-01T12:44:03.158Z,23.63
2022-08-01T12:47:08.223Z,23.64
2022-08-01T12:50:16.191Z,23.67
2022-08-01T12:53:19.640Z,23.75
2022-08-01T12:56:33.722Z,23.80
2022-08-01T12:59:36.443Z,24.23
2022-08-01T13:02:39.805Z,24.34
2022-08-01T13:05:46.645Z,24.12
2022-08-01T13:08:51.613Z,24.09
2022-08-01T13:12:03.819Z,23.94
2022-08-01T13:15:21.542Z,23.87
2022-08-01T13:18:26.673Z,23.76
2022-08-01T13:21:52.261Z,23.58
2022-08-01T13:24:54.278Z,23.63
2022-08-01T13:28:22.230Z,23.66
2022-08-01T13:31:34.713Z,23.68
2022-08-01T13:34:38.412Z,23.77
2022-08-01T13:37:44.265Z,23.83
2022-08-01T13:40:47.321Z,23.66
2022-08-01T13:43:58.959Z,23.52
2022-08-01T13:47:11.644Z,23.59
2022-08-01T13:50:20.310Z,23.73
2022-08-01T13:53:23.082Z,23.88
2022-08-01T13:56:28.493Z,24.01
2022-08-01T13:59:35.983Z,24.21
2022-08-01T14:02:39.004Z,24.29
2022-08-01T14:05:42.981Z,24.38
2022-08-01T14:08:46.517Z,24.48
2022-08-01T14:11:52.955Z,24.65
2022-08-01T14:14:57.430Z,24.67
2022-08-01T14:18:02.885Z,24.50
2022-08-01T14:21:08.631Z,24.34
2022-08-01T14:24:13.983Z,24.33
2022-08-01T14:27:16.748Z,24.38
2022-08-01T14:30:20.890Z,24.47
2022-08-01T14:33:24.068Z,24.60
2022-08-01T14:36:29.266Z,24.24
2022-08-01T14:39:33.656Z,24.25
2022-08-01T14:42:38.269Z,24.18
2022-08-01T14:45:42.417Z,24.20
2022-08-01T14:48:45.259Z,24.18
2022-08-01T14:51:48.007Z,24.31
2022-08-01T14:54:50.900Z,24.35
2022-08-01T14:57:53.861Z,24.27
2022-08-01T15:00:59.258Z,24.21
2022-08-01T15:04:04.429Z,24.17
2022-08-01T15:07:07.396Z,24.10
2022-08-01T15:10:11.573Z,24.03
2022-08-01T15:13:14.341Z,24.01
2022-08-01T15:16:18.428Z,23.97
2022-08-01T15:19:23.594Z,23.98
2022-08-01T15:22:27.433Z,24.10
2022-08-01T15:25:41.085Z,24.19
2022-08-01T15:28:45.322Z,24.22
2022-08-01T15:31:49.449Z,24.08
2022-08-01T15:34:52.713Z,23.74
2022-08-01T15:37:55.461Z,23.71
2022-08-01T15:40:58.325Z,23.69
2022-08-01T15:44:01.408Z,23.67
2022-08-01T15:47:08.279Z,23.72
2022-08-01T15:50:14.300Z,23.76
2022-08-01T15:53:17.088Z,23.78
2022-08-01T15:56:19.870Z,23.73
2022-08-01T15:59:23.051Z,23.72
2022-08-01T16:02:27.263Z,23.66
2022-08-01T16:05:30.117Z,23.57
2022-08-01T16:08:33.511Z,23.45
2022-08-01T16:11:40.950Z,23.38
2022-08-01T16:14:45.798Z,23.36
2022-08-01T16:17:49.863Z,23.42
2022-08-01T16:20:52.574Z,23.52
2022-08-01T16:23:55.325Z,23.43
2022-08-01T16:26:58.369Z,23.48
2022-08-01T16:30:03.527Z,23.70
2022-08-01T16:33:16.128Z,23.75
2022-08-01T16:36:30.501Z,23.39
2022-08-01T16:39:34.014Z,23.22
2022-08-01T16:42:37.945Z,23.06
2022-08-01T16:45:42.905Z,22.94
2022-08-01T16:48:46.974Z,22.85
2022-08-01T16:51:49.728Z,22.84
2022-08-01T16:54:52.490Z,22.82
2022-08-01T16:57:55.279Z,22.82
2022-08-01T17:01:58.352Z,22.77
2022-08-01T17:04:22.262Z,22.74
2022-08-01T17:07:25.188Z,22.73
2022-08-01T17:10:31.408Z,22.69
2022-08-01T17:13:34.171Z,22.64
2022-08-01T17:16:36.924Z,22.58
2022-08-01T17:19:41.504Z,22.56
2022-08-01T17:22:44.293Z,22.55
2022-08-01T17:25:47.072Z,22.50
2022-08-01T17:28:53.198Z,22.52
2022-08-01T17:31:56.077Z,22.49
2022-08-01T17:35:00.129Z,22.52
2022-08-01T17:38:03.307Z,22.48
2022-08-01T17:41:06.081Z,22.50
2022-08-01T17:44:09.362Z,22.41
2022-08-01T17:47:14.647Z,22.35
2022-08-01T17:50:28.361Z,22.28
2022-08-01T17:53:33.270Z,22.22
2022-08-01T17:56:40.037Z,22.22
2022-08-01T17:59:45.096Z,22.23
2022-08-01T18:02:47.866Z,22.12
2022-08-01T18:05:55.196Z,22.06
2022-08-01T18:08:59.584Z,22.00
2022-08-01T18:12:03.372Z,21.95
2022-08-01T18:15:07.431Z,21.91
2022-08-01T18:18:13.938Z,21.82
2022-08-01T18:21:18.014Z,21.73
2022-08-01T18:24:22.360Z,21.75
2022-08-01T18:27:25.158Z,21.63
2022-08-01T18:30:48.018Z,21.56
2022-08-01T18:33:50.799Z,21.51
2022-08-01T18:36:56.418Z,21.44
2022-08-01T18:40:01.093Z,21.35
2022-08-01T18:43:03.976Z,21.19
2022-08-01T18:46:07.040Z,21.07
2022-08-01T18:49:11.467Z,20.96
2022-08-01T18:52:16.335Z,20.92
2022-08-01T18:55:19.422Z,20.85
2022-08-01T18:58:22.348Z,20.75
2022-08-01T19:01:25.561Z,20.70
2022-08-01T19:04:28.395Z,20.72
2022-08-01T19:08:06.429Z,20.54
2022-08-01T19:10:59.829Z,20.40
2022-08-01T19:14:05.253Z,20.26
2022-08-01T19:17:08.178Z,20.41
2022-08-01T19:20:11.873Z,20.30
2022-08-01T19:23:33.426Z,20.27
2022-08-01T19:26:37.790Z,20.11
2022-08-01T19:29:40.971Z,20.15
2022-08-01T19:32:45.617Z,19.98
2022-08-01T19:35:53.826Z,19.77
2022-08-01T19:38:57.939Z,19.80
2022-08-01T19:42:00.837Z,19.70
2022-08-01T19:45:05.450Z,19.89
2022-08-01T19:48:12.859Z,19.96
2022-08-01T19:51:17.584Z,19.97
2022-08-01T19:54:26.848Z,19.96
2022-08-01T19:57:44.620Z,19.78
2022-08-01T20:00:51.030Z,19.28
2022-08-01T20:03:56.268Z,19.63
2022-08-01T20:07:03.018Z,19.69
2022-08-01T20:10:09.183Z,19.53
2022-08-01T20:13:13.108Z,19.19
2022-08-01T20:16:18.865Z,19.38
2022-08-01T20:19:24.438Z,19.37
2022-08-01T20:22:33.669Z,19.12
2022-08-01T20:25:42.166Z,18.87
2022-08-01T20:28:49.549Z,18.79
2022-08-01T20:31:52.830Z,19.03
2022-08-01T20:34:56.964Z,19.02
2022-08-01T20:38:06.399Z,18.96
2022-08-01T20:41:11.626Z,18.99
2022-08-01T20:44:16.850Z,19.08
2022-08-01T20:47:19.805Z,18.85
2022-08-01T20:50:52.929Z,18.57
2022-08-01T20:53:57.455Z,18.65
2022-08-01T20:57:08.664Z,18.23
2022-08-01T21:00:12.801Z,17.98
2022-08-01T21:03:23.604Z,17.83
2022-08-01T21:06:35.075Z,17.91
2022-08-01T21:09:39.902Z,17.87
2022-08-01T21:12:49.359Z,17.68
2022-08-01T21:16:23.176Z,17.90
2022-08-01T21:19:27.622Z,18.08
2022-08-01T21:22:39.602Z,17.93
2022-08-01T21:25:43.467Z,17.95
2022-08-01T21:28:53.945Z,17.72
2022-08-01T21:32:12.335Z,17.95
2022-08-01T21:35:18.527Z,17.89
2022-08-01T21:38:22.039Z,17.91
2022-08-01T21:42:03.584Z,17.85
2022-08-01T21:44:50.162Z,17.54
2022-08-01T21:47:53.618Z,17.51
2022-08-01T21:50:59.728Z,17.28
2022-08-01T21:54:10.441Z,17.38
2022-08-01T21:57:23.569Z,17.40
2022-08-01T22:00:28.679Z,17.14
2022-08-01T22:03:36.952Z,17.21
2022-08-01T22:06:44.277Z,16.94
2022-08-01T22:09:50.438Z,16.79
2022-08-01T22:12:53.911Z,16.69
2022-08-01T22:16:01.356Z,16.90
2022-08-01T22:19:04.387Z,17.02
2022-08-01T22:22:44.181Z,16.77
2022-08-01T22:25:34.389Z,16.98
2022-08-01T22:28:38.660Z,17.08
2022-08-01T22:31:42.901Z,17.11
2022-08-01T22:34:45.674Z,16.86
2022-08-01T22:37:56.042Z,16.91
2022-08-01T22:41:02.609Z,17.02
2022-08-01T22:44:10.872Z,16.86
2022-08-01T22:47:26.209Z,16.88
2022-08-01T22:50:36.543Z,16.93
2022-08-01T22:53:49.799Z,16.79
2022-08-01T22:56:59.040Z,16.41
2022-08-01T23:00:03.564Z,16.42
2022-08-01T23:03:15.361Z,16.18
2022-08-01T23:06:23.519Z,16.13
2022-08-01T23:09:52.978Z,15.97
2022-08-01T23:12:54.099Z,16.06
2022-08-01T23:15:58.449Z,16.04
2022-08-01T23:19:03.338Z,15.88
2022-08-01T23:22:06.928Z,15.89
2022-08-01T23:25:12.249Z,15.77
2022-08-01T23:28:15.883Z,15.69
2022-08-01T23:31:18.813Z,15.82
2022-08-01T23:34:22.879Z,16.04
2022-08-01T23:37:26.695Z,16.04
2022-08-01T23:40:33.306Z,16.03
2022-08-01T23:43:36.065Z,16.20
2022-08-01T23:46:39.154Z,16.22
2022-08-01T23:49:53.460Z,15.99
2022-08-01T23:52:56.584Z,16.03
2022-08-01T23:56:02.419Z,15.92
2022-08-01T23:59:05.546Z,15.91
